Whitten, Iowa
Current Conditions -  °F | °C
As of 4:53 PM on Friday 31 Oct 2014 (Local Time) from KMIW Reporting Station
Clear Clear  
Wind Chill: 31°   Ceiling: Unl
Heat Index: 40°   Visibility: 10mi
Dew Point: 17°   Wind: 16mph
Humidity: 40%   Direction: 350°N
Pressure: 30.44"   Gusts: NA
Location:  42.26°N, 93.01°W
Report Text: KMIW 312153Z AUTO 35014KT 10SM CLR 04/M08 A3044 RMK AO2 SLP318 T00441083
Loading
Personal Weather Stations






























Interactive Weather Map
Tropical Storm Tracking
New forecast layout! Learn more

10-Day Weather Forecast

Advertisements
Track Severe Weather on mobile